• Join FlightAware (Why Join?)
  • Login
  • US Flag GB Flag 
23:14 EST


 

Airport Tracker/Info


-or-


 

Live Flight TrackerFlight Track Log ✈ EGF4086 ✈ 22-Apr-2013 ✈ KROC - KORD

Flight Track Log - Related Links

Times and Time Zones

All times are in EDT time to prevent confusion due to time zone crossing. See the EGF4086 flight status page for this flight to view local times or setup timezone preferences in your user account.

Time Position Orientation Groundspeed Altitude Reporting Facility
EDT Latitude Longitude Course Direction KTS MPH feet Rate Location/Type
15:22 43.0975 -77.6972 281° West 156 180 1,200  Level Cleveland Center
15:23 43.0733 -77.7353 229° Southwest 193 222 2,900 2,419 Climbing Cleveland Center
15:24 43.0881 -77.8286 282° West 221 254 6,200 2,731 Climbing Cleveland Center
15:25 43.1500 -78.0334 278° West  Level FlightAware Approximate
15:25 43.1047 -77.9131 285° West 226 260 9,000  Level Cleveland Center
15:26 43.1623 -78.1565 278° West  Level FlightAware Approximate
15:26 43.1214 -78.0061 284° West 241 277 10,300  Level Cleveland Center
15:27 43.1780 -78.2788 281° West  Level FlightAware Approximate
15:27 43.1428 -78.1219 284° West 277 319 11,700  Level Cleveland Center
15:28 43.1954 -78.4007 281° West  Level FlightAware Approximate
15:28 43.1661 -78.2464 284° West 317 365 13,100  Level Cleveland Center
15:29 43.1894 -78.3708 284° West 338 389 14,600 1,500 Climbing Cleveland Center
15:30 43.2106 -78.5067 282° West 352 405 16,100 1,450 Climbing Cleveland Center
15:31 43.2047 -78.6408 267° West 357 411 17,500 1,200 Climbing Cleveland Center
15:32 43.1944 -78.7836 264° West 362 417 18,500 1,125 Climbing Cleveland Center
15:33 43.1833 -78.9000 263° West 370 426 19,600 1,125 Climbing Toronto Center
15:34 43.1667 -79.0333 260° West 380 437 20,600 950 Climbing Toronto Center
15:35 43.1667 -79.2000 270° West 390 449 21,500 950 Climbing Toronto Center
15:36 43.1500 -79.3667 262° West 400 460 22,500 950 Climbing Toronto Center
15:37 43.1333 -79.5000 260° West 400 460 23,400 900 Climbing Toronto Center
15:38 43.1333 -79.6500 270° West 410 472 24,300 950 Climbing Toronto Center
15:39 43.1167 -79.8167 262° West 410 472 25,300 950 Climbing Toronto Center
15:40 43.1167 -79.9500 270° West 410 472 26,200 950 Climbing Toronto Center
15:41 43.1000 -80.1167 262° West 400 460 27,200 950 Climbing Toronto Center
15:42 43.1000 -80.2500 270° West 400 460 28,100 950 Climbing Toronto Center
15:43 43.0833 -80.4167 262° West 400 460 29,100 1,000 Climbing Toronto Center
15:44 43.0667 -80.5667 261° West 400 460 30,100 950 Climbing Toronto Center
15:45 43.0667 -80.7000 270° West 400 460 31,000 900 Climbing Toronto Center
15:46 43.0333 -80.8667 255° West 400 460 31,900 500 Climbing Toronto Center
15:47 43.0333 -81.0167 270° West 410 472 32,000 50 Climbing Toronto Center
15:48 43.0167 -81.1833 262° West 410 472 32,000  Level Toronto Center
15:49 43.0167 -81.3500 270° West 410 472 32,000  Level Toronto Center
15:50 43.0167 -81.4833 270° West 410 472 32,000  Level Toronto Center
15:51 43.0167 -81.6333 270° West 410 472 32,000  Level Toronto Center
15:52 43.0167 -81.8000 270° West 410 472 32,000  Level Toronto Center
15:53 43.0000 -81.9667 262° West 420 483 32,000  Level Toronto Center
15:54 43.0000 -82.1167 270° West 420 483 32,000  Level Toronto Center
15:55 43.0000 -82.2833 270° West 410 472 32,000  Level Toronto Center
15:56 43.0000 -82.4333 270° West 410 472 32,000  Level Toronto Center
15:57 43.0000 -82.6000 270° West 420 483 32,000  Level Toronto Center
15:58 42.9833 -82.7500 261° West 420 483 32,000  Level Toronto Center
15:59 42.9833 -82.9167 270° West 420 483 32,000  Level Toronto Center
16:00 42.9833 -83.0667 270° West 420 483 32,000  Level Toronto Center
16:01 42.9839 -83.2481 270° West 419 482 32,000  Level Cleveland Center
16:02 42.9800 -83.4042 268° West 419 482 32,000  Level Cleveland Center
16:03 42.9739 -83.5656 267° West 419 482 32,000  Level Cleveland Center
16:04 42.9656 -83.7242 266° West 424 488 32,000  Level Cleveland Center
16:05 42.9528 -83.8825 264° West 419 482 32,000  Level Cleveland Center
16:06 42.9378 -84.0375 263° West 424 488 32,000  Level Cleveland Center
16:07 42.9225 -84.1956 263° West 424 488 32,000  Level Cleveland Center
16:09 42.9028 -84.3903 262° West 420 483 32,000  Level Chicago Center
16:10 42.8850 -84.5772 263° West 416 479 32,000  Level Chicago Center
16:11 42.8683 -84.7328 262° West 416 479 32,000  Level Chicago Center
16:12 42.8531 -84.8883 262° West 415 478 32,000  Level Chicago Center
16:13 42.8361 -85.0425 262° West 414 476 32,000 -816 Level Chicago Center
16:14 42.8200 -85.1942 262° West 406 467 30,300 -1,824 Descending Chicago Center
16:15 42.8031 -85.3497 262° West 412 474 28,200 -1,984 Descending Chicago Center
16:16 42.7856 -85.5053 261° West 416 479 26,200 -1,935 Descending Chicago Center
16:17 42.7508 -85.6942 256° West 425 489 24,200 -1,742 Descending Chicago Center
16:18 42.7231 -85.8503 256° West 423 487 22,600 -1,403 Descending Chicago Center
16:19 42.6950 -86.0031 256° West 416 479 21,300 -1,161 Descending Chicago Center
16:20 42.6689 -86.1500 256° West 401 461 20,200 -1,161 Descending Chicago Center
16:21 42.6419 -86.2942 256° West 393 452 18,900 -1,500 Descending Chicago Center
16:22 42.6150 -86.4328 255° West 383 441 17,100 -1,790 Descending Chicago Center
16:23 42.5889 -86.5689 255° West 374 430 15,200 -1,790 Descending Chicago Center
16:24 42.5600 -86.7256 256° West 359 413 13,400 -1,645 Descending Chicago Center
16:25 42.5278 -86.8511 251° West 354 407 11,800 -1,306 Descending Chicago Center
16:26 42.4928 -86.9731 249° West 349 402 10,700 -871 Descending Chicago Center
16:27 42.4597 -87.0925 249° West 338 389 10,000 -677 Descending Chicago Center
16:28 42.4294 -87.2067 250° West 321 369 9,300 -484 Descending Chicago Center
16:29 42.4028 -87.3011 249° West 275 316 9,000 -532 Descending Chicago Center
16:30 42.3728 -87.4108 250° West 269 310 8,200 -629 Descending Chicago Center
16:31 42.3489 -87.5058 251° West 269 310 7,700 -532 Descending Chicago Center
16:32 42.2956 -87.5714 222° Southwest 264 304 7,100 -629 Descending Chicago Center
16:33 42.2383 -87.6292 217° Southwest 260 299 6,400 -1,161 Descending Chicago Center
16:34 42.1733 -87.7019 220° Southwest 255 293 4,700 -1,210 Descending Chicago Center
16:36 42.1242 -87.7581 220° Southwest 241 277 3,900 -900 Descending Chicago Center
16:36 42.1000 -87.7833 218° Southwest 211 243 3,200 -1,105 Descending Chicago TRACON